Time;durP1;ratioP1;P1;durP2;ratioP2;P2;SDS_P1;SDS_P2;PMS_P1;PMS_P2;Temp;Humidity;BMP_temperature;BMP_pressure;BME280_temperature;BME280_humidity;BME280_pressure;Samples;Min_cycle;Max_cycle;Signal;HPM_P1;HPM_P2
2023/10/04 00:01:39;;;;;;;19.13;4.97;;;12.00;99.90;;;;;;5077184;28;20985;-62
2023/10/04 00:04:06;;;;;;;6.60;3.93;;;12.00;99.90;;;;;;5077100;28;20497;-61
2023/10/04 00:06:34;;;;;;;7.53;3.90;;;12.00;99.90;;;;;;5077337;28;20486;-61
2023/10/04 00:09:03;;;;;;;6.87;4.00;;;12.00;99.90;;;;;;5077040;28;20833;-61
2023/10/04 00:11:31;;;;;;;7.70;4.10;;;11.90;99.90;;;;;;5077410;28;20556;-62
2023/10/04 00:13:59;;;;;;;8.77;4.10;;;11.90;99.90;;;;;;5077514;28;20457;-62
2023/10/04 00:16:27;;;;;;;8.20;4.40;;;11.90;99.90;;;;;;5076855;28;20885;-61
2023/10/04 00:18:57;;;;;;;8.40;4.13;;;11.90;99.90;;;;;;5077426;28;20744;-61
2023/10/04 00:21:25;;;;;;;7.17;4.07;;;11.90;99.90;;;;;;5077268;28;20458;-61
2023/10/04 00:23:52;;;;;;;7.83;4.57;;;11.90;99.90;;;;;;5077126;28;20717;-63
2023/10/04 00:26:19;;;;;;;6.70;4.47;;;11.90;99.90;;;;;;5076844;28;20453;-61
2023/10/04 00:28:46;;;;;;;9.07;4.40;;;11.90;99.90;;;;;;5076855;28;20522;-60
2023/10/04 00:31:14;;;;;;;8.63;4.47;;;11.90;99.90;;;;;;5077326;28;20454;-60
2023/10/04 00:33:42;;;;;;;10.70;4.13;;;11.80;99.90;;;;;;5077344;28;20866;-61
2023/10/04 00:36:13;;;;;;;8.33;4.63;;;11.80;99.90;;;;;;5075610;28;20478;-60
2023/10/04 00:38:40;;;;;;;8.80;4.77;;;11.80;99.90;;;;;;5055789;28;20462;-61
2023/10/04 00:41:11;;;;;;;6.13;3.90;;;11.70;99.90;;;;;;5056606;28;20467;-61
2023/10/04 00:43:49;;;;;;;7.13;4.20;;;11.70;99.90;;;;;;5059722;28;20527;-61
2023/10/04 00:46:18;;;;;;;6.53;4.30;;;11.70;99.90;;;;;;5058904;28;20492;-61
2023/10/04 00:48:46;;;;;;;9.47;4.33;;;11.80;99.90;;;;;;5058539;28;20769;-61
2023/10/04 00:51:15;;;;;;;7.90;4.67;;;11.70;99.90;;;;;;5058890;28;20545;-61
2023/10/04 00:53:47;;;;;;;9.10;4.53;;;11.70;99.90;;;;;;5059212;28;20462;-61
2023/10/04 00:56:16;;;;;;;11.07;4.70;;;11.70;99.90;;;;;;5059159;28;20807;-61
2023/10/04 00:58:45;;;;;;;6.30;3.70;;;11.70;99.90;;;;;;5059433;28;20561;-60
2023/10/04 01:01:14;;;;;;;7.17;4.00;;;11.70;99.90;;;;;;5059272;28;20791;-61
2023/10/04 01:03:41;;;;;;;8.10;4.00;;;11.70;99.90;;;;;;5059337;28;20857;-61
2023/10/04 01:06:09;;;;;;;6.80;4.50;;;11.70;99.90;;;;;;5059328;28;20560;-61
2023/10/04 01:08:39;;;;;;;10.03;5.57;;;11.70;99.90;;;;;;5059376;28;20478;-60
2023/10/04 01:11:10;;;;;;;12.23;4.77;;;11.70;99.90;;;;;;5059667;28;20557;-61
2023/10/04 01:13:38;;;;;;;10.77;4.83;;;11.60;99.90;;;;;;5060597;28;20463;-61
2023/10/04 01:16:09;;;;;;;9.80;4.97;;;11.60;99.90;;;;;;5059913;28;20466;-61
2023/10/04 01:18:37;;;;;;;7.77;4.70;;;11.60;99.90;;;;;;5060150;28;20489;-61
2023/10/04 01:21:05;;;;;;;10.47;4.20;;;11.60;99.90;;;;;;5060350;28;20805;-61
2023/10/04 01:23:34;;;;;;;8.33;4.30;;;11.60;99.90;;;;;;5060202;28;20933;-61
2023/10/04 01:26:02;;;;;;;7.90;3.47;;;11.60;99.90;;;;;;5059853;28;20891;-61
2023/10/04 01:28:30;;;;;;;9.13;3.90;;;11.50;99.90;;;;;;5059567;28;20462;-61
2023/10/04 01:30:59;;;;;;;8.23;3.57;;;11.60;1.00;;;;;;5060127;28;20455;-60
2023/10/04 01:33:28;;;;;;;7.47;3.93;;;11.60;99.90;;;;;;5060110;28;20462;-60
2023/10/04 01:35:56;;;;;;;7.23;4.00;;;11.70;99.90;;;;;;5059546;28;20482;-60
2023/10/04 01:38:25;;;;;;;5.70;3.63;;;11.60;1.00;;;;;;5059471;28;20468;-61
2023/10/04 01:40:54;;;;;;;17.20;4.83;;;11.60;1.00;;;;;;5059981;28;20493;-61
2023/10/04 01:43:24;;;;;;;10.90;4.47;;;11.60;1.00;;;;;;5059512;28;20552;-61
2023/10/04 01:45:52;;;;;;;10.17;4.10;;;11.70;1.00;;;;;;5059679;28;20512;-61
2023/10/04 01:48:20;;;;;;;11.03;4.50;;;11.60;1.00;;;;;;5060116;28;20465;-61
2023/10/04 01:50:48;;;;;;;9.33;4.37;;;11.60;1.00;;;;;;5059776;28;20894;-61
2023/10/04 01:53:16;;;;;;;6.30;4.00;;;11.60;1.00;;;;;;5059119;28;20462;-61
2023/10/04 01:55:43;;;;;;;7.63;4.50;;;11.60;1.00;;;;;;5058934;28;20455;-61
2023/10/04 01:58:13;;;;;;;12.23;4.90;;;11.60;1.00;;;;;;5059717;28;20569;-60
2023/10/04 02:00:40;;;;;;;8.27;3.40;;;11.50;1.00;;;;;;5059874;28;20493;-60
2023/10/04 02:03:10;;;;;;;11.80;4.67;;;11.50;1.00;;;;;;5059636;28;20476;-60
2023/10/04 02:05:40;;;;;;;13.23;4.63;;;11.40;1.00;;;;;;5059592;28;20458;-61
2023/10/04 02:08:09;;;;;;;9.30;4.90;;;11.40;1.00;;;;;;5059206;28;20489;-61
2023/10/04 02:10:37;;;;;;;9.53;3.87;;;11.40;1.00;;;;;;5059339;28;20467;-60
2023/10/04 02:13:06;;;;;;;7.90;4.80;;;11.40;1.00;;;;;;5059594;28;20494;-61
2023/10/04 02:15:37;;;;;;;9.77;4.00;;;11.40;1.00;;;;;;5059349;28;20462;-61
2023/10/04 02:18:05;;;;;;;11.33;5.20;;;11.40;1.00;;;;;;5059151;28;20827;-61
2023/10/04 02:20:34;;;;;;;13.17;4.90;;;11.40;1.00;;;;;;5059322;28;20490;-61
2023/10/04 02:23:03;;;;;;;9.37;4.40;;;11.40;1.00;;;;;;5059321;28;20464;-61
2023/10/04 02:25:30;;;;;;;8.80;4.30;;;11.30;1.00;;;;;;5059459;28;20438;-61
2023/10/04 02:28:01;;;;;;;10.23;4.80;;;11.40;1.00;;;;;;5058783;28;20480;-61
2023/10/04 02:30:29;;;;;;;7.50;4.40;;;11.40;1.00;;;;;;5059231;28;20470;-61
2023/10/04 02:32:58;;;;;;;11.67;4.30;;;11.50;1.00;;;;;;5059287;28;20934;-61
2023/10/04 02:35:27;;;;;;;9.83;4.40;;;11.50;1.00;;;;;;5059428;28;20458;-61
2023/10/04 02:37:59;;;;;;;11.53;5.03;;;11.50;1.00;;;;;;5058662;28;20940;-61
2023/10/04 02:40:32;;;;;;;7.47;4.43;;;11.50;1.00;;;;;;5058248;28;20490;-61
2023/10/04 02:43:00;;;;;;;10.70;6.47;;;11.60;1.00;;;;;;5058766;28;20469;-60
2023/10/04 02:45:29;;;;;;;8.53;4.20;;;11.60;1.00;;;;;;5058024;28;20469;-61
2023/10/04 02:47:58;;;;;;;10.73;4.50;;;11.60;1.00;;;;;;5058478;28;20462;-61
2023/10/04 02:50:25;;;;;;;9.93;4.90;;;11.50;1.00;;;;;;5058736;28;20456;-61
2023/10/04 02:52:52;;;;;;;9.83;5.10;;;11.60;1.00;;;;;;5058540;28;20501;-61
2023/10/04 02:55:20;;;;;;;9.33;4.60;;;11.60;1.00;;;;;;5058210;28;20465;-61
2023/10/04 02:57:50;;;;;;;11.43;5.10;;;11.60;1.00;;;;;;5058653;28;20508;-61
2023/10/04 03:00:19;;;;;;;11.10;4.67;;;11.60;1.00;;;;;;5058584;28;20575;-61
2023/10/04 03:02:48;;;;;;;12.93;4.80;;;11.60;1.00;;;;;;5058540;28;20468;-61
2023/10/04 03:05:19;;;;;;;9.60;4.97;;;11.60;1.00;;;;;;5058121;28;20462;-61
2023/10/04 03:07:47;;;;;;;10.07;4.70;;;11.60;1.00;;;;;;5058570;28;20478;-61
2023/10/04 03:10:23;;;;;;;9.83;4.60;;;11.60;1.00;;;;;;5058491;28;20454;-62
2023/10/04 03:12:52;;;;;;;7.83;4.90;;;11.60;1.00;;;;;;5058456;28;20516;-60
2023/10/04 03:15:22;;;;;;;10.47;5.30;;;11.60;14.50;;;;;;5057979;28;20458;-61
2023/10/04 03:17:50;;;;;;;10.00;5.00;;;11.60;1.00;;;;;;5058527;28;20466;-61
2023/10/04 03:20:21;;;;;;;9.30;4.73;;;11.60;13.90;;;;;;5057976;28;20882;-62
2023/10/04 03:22:49;;;;;;;12.57;5.00;;;11.60;23.80;;;;;;5058179;28;20461;-61
2023/10/04 03:25:17;;;;;;;10.50;5.10;;;11.60;15.00;;;;;;5058065;28;20883;-61
2023/10/04 03:27:46;;;;;;;12.83;4.80;;;11.60;51.10;;;;;;5057817;28;22407;-61
2023/10/04 03:30:17;;;;;;;5.77;4.33;;;11.70;84.80;;;;;;5057696;28;20460;-61
2023/10/04 03:32:51;;;;;;;10.03;4.90;;;11.70;97.30;;;;;;5057772;28;20485;-62
2023/10/04 03:35:21;;;;;;;10.30;4.37;;;11.80;85.00;;;;;;5058229;28;20748;-61
2023/10/04 03:37:54;;;;;;;8.57;4.87;;;11.80;99.90;;;;;;5058225;28;20429;-61
2023/10/04 03:40:22;;;;;;;8.97;4.90;;;11.80;93.80;;;;;;5057416;28;20586;-61
2023/10/04 03:42:49;;;;;;;14.40;5.83;;;11.80;70.30;;;;;;5057555;28;20512;-62
2023/10/04 03:45:18;;;;;;;10.43;4.87;;;11.80;34.40;;;;;;5057976;28;20515;-61
2023/10/04 03:47:50;;;;;;;9.43;4.47;;;11.80;1.90;;;;;;5057744;28;20459;-63
2023/10/04 03:50:19;;;;;;;10.50;6.07;;;11.80;1.00;;;;;;5057638;28;20890;-61
2023/10/04 03:52:51;;;;;;;11.03;5.13;;;11.80;1.00;;;;;;5057539;28;20890;-60
2023/10/04 03:55:18;;;;;;;11.93;6.47;;;11.80;3.10;;;;;;5057883;28;20953;-61
2023/10/04 03:57:46;;;;;;;8.80;6.00;;;11.80;37.60;;;;;;5057613;28;20488;-61
2023/10/04 04:00:17;;;;;;;14.20;6.40;;;11.80;77.00;;;;;;5056348;28;20467;-61
2023/10/04 04:02:45;;;;;;;15.70;5.30;;;11.90;55.00;;;;;;5056882;28;20468;-61
2023/10/04 04:05:14;;;;;;;10.77;6.20;;;11.90;52.30;;;;;;5057291;28;20505;-61
2023/10/04 04:07:41;;;;;;;14.47;6.93;;;11.90;24.10;;;;;;5057405;28;20494;-60
2023/10/04 04:10:14;;;;;;;10.77;5.50;;;11.90;53.40;;;;;;5056823;28;20443;-62
2023/10/04 04:12:42;;;;;;;13.40;5.50;;;11.90;37.20;;;;;;5061140;28;20802;-61
2023/10/04 04:15:12;;;;;;;10.80;4.90;;;11.90;86.50;;;;;;5077067;28;20457;-61
2023/10/04 04:17:41;;;;;;;12.30;5.63;;;11.90;99.90;;;;;;5076714;28;20461;-61
2023/10/04 04:20:14;;;;;;;10.20;5.70;;;11.90;99.90;;;;;;5076803;28;20469;-61
2023/10/04 04:22:45;;;;;;;14.77;6.17;;;12.00;99.90;;;;;;5077345;28;20461;-61
2023/10/04 04:25:19;;;;;;;8.17;5.63;;;11.90;55.80;;;;;;5077533;28;20739;-60
2023/10/04 04:27:47;;;;;;;13.20;6.50;;;12.00;75.00;;;;;;5076558;28;20527;-61
2023/10/04 04:30:19;;;;;;;11.10;5.70;;;12.00;47.90;;;;;;5077075;28;20488;-60
2023/10/04 04:32:49;;;;;;;14.33;6.60;;;11.90;32.40;;;;;;5077352;28;20461;-60
2023/10/04 04:35:34;;;;;;;16.83;5.70;;;11.90;1.00;;;;;;5077230;28;20563;-61
2023/10/04 04:38:11;;;;;;;7.83;5.20;;;12.00;71.30;;;;;;5077135;28;20461;-61
2023/10/04 04:40:41;;;;;;;10.80;5.97;;;12.00;51.10;;;;;;5077204;28;20558;-61
2023/10/04 04:43:26;;;;;;;10.33;5.80;;;12.00;98.10;;;;;;5077077;28;20469;-61
2023/10/04 04:45:56;;;;;;;12.47;5.50;;;12.00;99.90;;;;;;5076754;28;20469;-61
2023/10/04 04:48:24;;;;;;;14.77;5.57;;;12.00;99.90;;;;;;5076685;28;20564;-61
2023/10/04 04:50:53;;;;;;;12.40;6.27;;;12.00;90.90;;;;;;5077189;28;20744;-60
2023/10/04 04:53:22;;;;;;;10.37;5.83;;;12.00;68.00;;;;;;5077070;28;20483;-62
2023/10/04 04:55:51;;;;;;;13.13;5.37;;;12.00;99.90;;;;;;5075550;28;20438;-62
2023/10/04 04:58:20;;;;;;;14.40;5.00;;;12.10;64.50;;;;;;5055666;28;20971;-61
2023/10/04 05:00:50;;;;;;;9.57;5.80;;;12.10;34.30;;;;;;5054809;28;20968;-61
2023/10/04 05:03:18;;;;;;;20.40;5.67;;;12.10;31.80;;;;;;5055270;28;20462;-61
2023/10/04 05:05:49;;;;;;;11.80;5.77;;;12.10;23.50;;;;;;5056030;28;20471;-62
2023/10/04 05:08:17;;;;;;;9.97;5.30;;;12.00;41.70;;;;;;5076079;28;20489;-61
2023/10/04 05:10:44;;;;;;;13.57;6.17;;;12.00;54.80;;;;;;5076249;28;20472;-62
2023/10/04 05:13:14;;;;;;;9.07;6.07;;;12.00;79.80;;;;;;5073379;28;20470;-61
2023/10/04 05:15:42;;;;;;;11.10;5.53;;;12.00;99.90;;;;;;5069243;28;20452;-61
2023/10/04 05:18:12;;;;;;;11.07;5.97;;;12.10;99.90;;;;;;5075690;28;20752;-62
2023/10/04 05:20:43;;;;;;;12.27;5.70;;;12.10;99.90;;;;;;5075684;28;20528;-63
2023/10/04 05:23:12;;;;;;;13.40;6.70;;;12.10;84.90;;;;;;5075451;28;20928;-61
2023/10/04 05:25:41;;;;;;;10.87;7.63;;;12.10;72.80;;;;;;5075525;28;20461;-61
2023/10/04 05:28:14;;;;;;;9.73;7.20;;;12.10;52.00;;;;;;5077655;28;20457;-61
2023/10/04 05:30:45;;;;;;;12.30;6.57;;;12.10;63.70;;;;;;5080028;28;20468;-61
2023/10/04 05:33:13;;;;;;;10.80;7.03;;;12.10;8.20;;;;;;5079281;28;20783;-61
2023/10/04 05:35:41;;;;;;;18.80;7.17;;;12.10;1.00;;;;;;5077564;28;20461;-61
2023/10/04 05:38:11;;;;;;;12.97;6.80;;;12.10;1.00;;;;;;5077986;28;20636;-61
2023/10/04 05:40:40;;;;;;;10.47;7.63;;;12.10;8.30;;;;;;5078044;28;20537;-61
2023/10/04 05:43:08;;;;;;;14.47;7.70;;;12.10;6.20;;;;;;5077732;28;20556;-66
2023/10/04 05:45:42;;;;;;;16.23;7.43;;;12.20;4.10;;;;;;5077827;28;20474;-66
2023/10/04 05:48:10;;;;;;;13.70;7.50;;;12.20;1.00;;;;;;5078220;28;20911;-66
2023/10/04 05:50:37;;;;;;;14.60;8.43;;;12.10;1.00;;;;;;5078083;28;20465;-66
2023/10/04 05:53:06;;;;;;;17.07;8.63;;;12.20;1.00;;;;;;5079107;28;20461;-66
2023/10/04 05:55:34;;;;;;;11.80;6.70;;;12.20;1.00;;;;;;5079170;28;20515;-66
2023/10/04 05:58:07;;;;;;;14.70;7.60;;;12.20;1.00;;;;;;5079636;28;20462;-67
2023/10/04 06:00:40;;;;;;;12.40;6.20;;;12.10;1.00;;;;;;5079442;28;20959;-67
2023/10/04 06:03:11;;;;;;;11.03;6.97;;;12.20;1.00;;;;;;5078682;28;20481;-67
2023/10/04 06:05:39;;;;;;;12.33;7.00;;;12.10;1.00;;;;;;5079162;28;20457;-66
2023/10/04 06:08:15;;;;;;;15.27;7.13;;;12.10;1.00;;;;;;5060499;28;20467;-66
2023/10/04 06:10:45;;;;;;;15.33;6.90;;;12.20;1.00;;;;;;5079789;28;20827;-66
2023/10/04 06:13:13;;;;;;;12.20;7.70;;;12.10;1.00;;;;;;5078986;28;20523;-66
2023/10/04 06:15:46;;;;;;;11.33;7.00;;;12.10;1.00;;;;;;5079173;28;20461;-66
2023/10/04 06:18:22;;;;;;;14.13;7.13;;;12.10;1.00;;;;;;5078738;28;20493;-66
2023/10/04 06:20:50;;;;;;;11.97;6.17;;;12.20;1.00;;;;;;5078924;28;20468;-66
2023/10/04 06:23:24;;;;;;;13.70;7.40;;;12.10;1.00;;;;;;5079175;28;20897;-66
2023/10/04 06:25:52;;;;;;;12.60;5.80;;;12.20;1.00;;;;;;5078511;28;20461;-67
2023/10/04 06:28:24;;;;;;;12.30;6.33;;;12.20;1.00;;;;;;5078478;28;20465;-66
2023/10/04 06:30:53;;;;;;;10.80;6.70;;;12.30;1.00;;;;;;5078290;28;20484;-66
2023/10/04 06:33:21;;;;;;;10.33;5.67;;;12.30;1.00;;;;;;5078379;28;20465;-66
2023/10/04 06:35:50;;;;;;;10.63;5.80;;;12.30;1.00;;;;;;5078959;28;20440;-67
2023/10/04 06:38:20;;;;;;;13.60;6.17;;;12.30;1.00;;;;;;5078230;28;20465;-66
2023/10/04 06:40:50;;;;;;;14.10;5.73;;;12.40;1.00;;;;;;5078855;28;20466;-67
2023/10/04 06:43:18;;;;;;;13.40;5.73;;;12.50;1.00;;;;;;5078104;28;21019;-66
2023/10/04 06:45:45;;;;;;;14.73;5.63;;;12.30;1.00;;;;;;5078442;28;20474;-66
2023/10/04 06:48:16;;;;;;;8.80;4.83;;;12.40;1.00;;;;;;5076977;28;20453;-66
2023/10/04 06:50:45;;;;;;;9.40;5.30;;;12.40;1.00;;;;;;5078968;28;20472;-67
2023/10/04 06:53:13;;;;;;;11.17;6.10;;;12.30;1.00;;;;;;5078438;28;20461;-67
2023/10/04 06:55:43;;;;;;;10.20;5.80;;;12.20;1.00;;;;;;5077418;28;20457;-67
2023/10/04 06:58:13;;;;;;;14.87;5.60;;;12.30;1.00;;;;;;5077677;28;20469;-66
2023/10/04 07:00:41;;;;;;;11.40;5.37;;;12.40;1.00;;;;;;5059645;28;20470;-67
2023/10/04 07:03:08;;;;;;;12.70;5.17;;;12.50;1.00;;;;;;5078403;28;20521;-67
2023/10/04 07:05:43;;;;;;;13.17;5.20;;;12.50;1.00;;;;;;5078605;28;20463;-67
2023/10/04 07:08:15;;;;;;;15.03;6.40;;;12.60;1.00;;;;;;5077501;28;20493;-67
2023/10/04 07:10:45;;;;;;;10.50;5.10;;;12.70;99.90;;;;;;5077845;28;20472;-67
2023/10/04 07:13:16;;;;;;;11.80;5.83;;;12.60;99.90;;;;;;5077545;28;20457;-67
2023/10/04 07:15:46;;;;;;;12.10;5.23;;;12.70;99.90;;;;;;5077518;28;20485;-67
2023/10/04 07:18:16;;;;;;;14.70;6.33;;;12.80;1.00;;;;;;5077697;28;20469;-67
2023/10/04 07:20:46;;;;;;;16.27;6.60;;;12.80;99.90;;;;;;5077609;28;20465;-67
2023/10/04 07:23:16;;;;;;;10.33;6.00;;;12.80;99.90;;;;;;5078134;28;20489;-67
2023/10/04 07:25:54;;;;;;;14.77;6.80;;;12.80;99.90;;;;;;5077660;28;20830;-68
2023/10/04 07:28:29;;;;;;;10.80;6.33;;;12.80;99.90;;;;;;5077397;28;20455;-67
2023/10/04 07:30:56;;;;;;;10.80;6.57;;;12.70;99.90;;;;;;5077247;28;20886;-67
2023/10/04 07:33:30;;;;;;;12.00;6.70;;;12.70;99.90;;;;;;5076716;28;20491;-67
2023/10/04 07:35:59;;;;;;;9.47;6.40;;;12.80;99.90;;;;;;5077784;28;20472;-67
2023/10/04 07:38:27;;;;;;;14.83;6.80;;;12.90;99.90;;;;;;5077173;28;20467;-67
2023/10/04 07:40:59;;;;;;;16.50;8.23;;;13.00;99.90;;;;;;5077164;28;21000;-67
2023/10/04 07:43:32;;;;;;;8.60;6.77;;;13.00;99.90;;;;;;5076777;28;20509;-67
2023/10/04 07:46:00;;;;;;;11.93;7.47;;;13.10;99.90;;;;;;5077134;28;20465;-66
2023/10/04 07:48:31;;;;;;;14.30;7.40;;;13.00;99.90;;;;;;5077507;28;20556;-67
2023/10/04 07:51:04;;;;;;;17.80;8.63;;;13.10;99.90;;;;;;5076283;28;20489;-66
2023/10/04 07:53:35;;;;;;;14.20;7.40;;;13.20;99.90;;;;;;5076686;28;20975;-66
2023/10/04 07:56:03;;;;;;;13.00;7.87;;;13.10;99.90;;;;;;5076589;28;20848;-67
2023/10/04 07:58:30;;;;;;;9.80;7.30;;;13.10;99.90;;;;;;5076830;28;20461;-66
2023/10/04 08:00:58;;;;;;;11.67;7.87;;;13.30;99.90;;;;;;5077279;28;20501;-66
2023/10/04 08:03:26;;;;;;;17.13;8.00;;;13.40;99.90;;;;;;5077211;28;20497;-66
2023/10/04 08:05:53;;;;;;;12.30;7.30;;;13.40;99.90;;;;;;5077240;28;20762;-66
2023/10/04 08:08:22;;;;;;;13.63;8.00;;;13.60;99.90;;;;;;5076072;28;20930;-66
2023/10/04 08:10:51;;;;;;;18.47;9.57;;;13.80;99.90;;;;;;5076666;28;20577;-66
2023/10/04 08:13:18;;;;;;;14.23;7.83;;;13.70;96.50;;;;;;5077244;28;20458;-66
2023/10/04 08:15:46;;;;;;;15.50;9.00;;;13.90;99.90;;;;;;5078093;28;20457;-66
2023/10/04 08:18:16;;;;;;;12.70;7.90;;;14.10;91.40;;;;;;5076615;28;20461;-65
2023/10/04 08:20:43;;;;;;;21.17;7.90;;;14.20;1.00;;;;;;5075947;28;20463;-65
2023/10/04 08:23:13;;;;;;;16.73;8.67;;;14.20;1.00;;;;;;5075569;28;20795;-66
2023/10/04 08:25:42;;;;;;;12.07;8.30;;;14.70;33.00;;;;;;5074088;28;20874;-65
2023/10/04 08:28:09;;;;;;;12.03;9.67;;;14.70;1.00;;;;;;5073745;28;20465;-65
2023/10/04 08:30:38;;;;;;;12.90;8.43;;;14.10;1.00;;;;;;5074239;28;20741;-65
2023/10/04 08:33:05;;;;;;;13.43;9.00;;;14.00;1.00;;;;;;5074270;28;20457;-65
2023/10/04 08:35:36;;;;;;;10.17;7.73;;;14.00;1.00;;;;;;5074910;28;20544;-64
2023/10/04 08:38:05;;;;;;;12.37;7.50;;;14.40;33.10;;;;;;5075226;28;20461;-64
2023/10/04 08:40:36;;;;;;;14.67;8.67;;;14.50;1.00;;;;;;5075212;28;20457;-64
2023/10/04 08:43:05;;;;;;;11.23;7.43;;;14.50;1.00;;;;;;5074735;28;20484;-64
2023/10/04 08:45:34;;;;;;;15.20;8.07;;;14.50;1.00;;;;;;5075187;28;20463;-64
2023/10/04 08:48:02;;;;;;;12.17;7.33;;;15.20;15.90;;;;;;5075164;28;20469;-64
2023/10/04 08:50:36;;;;;;;12.80;8.20;;;15.60;1.00;;;;;;5074376;28;20977;-63
2023/10/04 08:53:09;;;;;;;15.33;7.27;;;16.00;1.00;;;;;;5075471;28;20746;-64
2023/10/04 08:55:41;;;;;;;15.03;7.73;;;16.20;99.90;;;;;;5077008;28;20467;-63
2023/10/04 08:58:10;;;;;;;13.83;6.80;;;16.40;99.90;;;;;;5076112;28;20461;-63
2023/10/04 09:00:43;;;;;;;10.83;7.23;;;16.20;99.90;;;;;;5076606;28;20472;-63
2023/10/04 09:03:12;;;;;;;10.80;7.20;;;15.80;99.90;;;;;;5078508;28;20587;-63
2023/10/04 09:05:46;;;;;;;11.93;6.73;;;15.60;99.90;;;;;;5078703;28;20898;-63
2023/10/04 09:08:14;;;;;;;13.80;7.20;;;15.10;1.00;;;;;;5079028;28;20637;-63
2023/10/04 09:10:42;;;;;;;11.07;7.70;;;15.50;1.00;;;;;;5077978;28;20463;-63
2023/10/04 09:13:12;;;;;;;14.73;7.60;;;15.50;99.90;;;;;;5078599;28;20873;-63
2023/10/04 09:15:39;;;;;;;11.87;7.20;;;15.60;99.90;;;;;;5078948;28;20835;-63
2023/10/04 09:18:08;;;;;;;14.23;6.80;;;16.00;99.90;;;;;;5078486;28;20457;-63
2023/10/04 09:20:36;;;;;;;11.63;6.30;;;16.50;99.90;;;;;;5078731;28;20467;-63
2023/10/04 09:23:16;;;;;;;13.13;5.97;;;16.50;99.90;;;;;;5078191;28;20496;-63
2023/10/04 09:25:46;;;;;;;10.57;6.63;;;16.40;99.90;;;;;;5078762;28;20452;-62
2023/10/04 09:28:15;;;;;;;14.73;6.77;;;16.60;99.90;;;;;;5078752;28;20519;-63
2023/10/04 09:30:42;;;;;;;10.40;6.13;;;16.90;99.90;;;;;;5079383;28;20536;-62
2023/10/04 09:33:23;;;;;;;9.60;6.10;;;16.60;99.90;;;;;;5079719;28;20984;-63
2023/10/04 09:35:51;;;;;;;11.53;6.07;;;16.70;99.90;;;;;;5061560;28;20503;-63
2023/10/04 09:38:21;;;;;;;14.20;7.37;;;16.50;99.90;;;;;;5079641;28;20457;-63
2023/10/04 09:40:52;;;;;;;12.70;6.20;;;16.30;99.90;;;;;;5079687;28;20503;-63
2023/10/04 09:43:35;;;;;;;11.90;6.33;;;16.50;99.90;;;;;;5079680;28;20481;-63
2023/10/04 09:46:02;;;;;;;10.80;6.70;;;16.80;99.90;;;;;;5079371;28;20647;-63
2023/10/04 09:48:33;;;;;;;17.40;5.90;;;17.00;99.90;;;;;;5079282;28;20544;-63
2023/10/04 09:51:01;;;;;;;13.00;6.03;;;17.00;93.00;;;;;;5079357;28;20461;-63
2023/10/04 09:53:29;;;;;;;13.87;5.70;;;17.20;99.90;;;;;;5079737;28;20461;-63
2023/10/04 09:56:01;;;;;;;13.40;6.53;;;17.50;1.00;;;;;;5078675;28;20738;-63
2023/10/04 09:58:31;;;;;;;15.83;6.30;;;17.50;1.00;;;;;;5060244;28;20478;-63
2023/10/04 10:01:08;;;;;;;7.63;4.80;;;17.20;1.00;;;;;;5079533;28;20492;-63
2023/10/04 10:03:42;;;;;;;8.57;4.50;;;17.10;1.00;;;;;;5079302;28;20920;-63
2023/10/04 10:06:13;;;;;;;11.50;5.27;;;17.10;1.00;;;;;;5079093;28;20466;-63
2023/10/04 10:08:44;;;;;;;12.60;6.00;;;17.30;13.20;;;;;;5078622;28;20801;-63
2023/10/04 10:11:12;;;;;;;11.50;5.33;;;17.50;1.00;;;;;;5079315;28;20457;-63
2023/10/04 10:13:42;;;;;;;12.30;4.93;;;17.40;1.00;;;;;;5078684;28;20873;-63
2023/10/04 10:16:11;;;;;;;7.80;4.10;;;17.30;1.00;;;;;;5078936;28;20496;-64
2023/10/04 10:18:39;;;;;;;13.00;5.27;;;17.30;1.00;;;;;;5078935;28;20462;-63
2023/10/04 10:21:08;;;;;;;7.80;4.23;;;17.50;1.00;;;;;;5079107;28;20461;-64
2023/10/04 10:23:56;;;;;;;9.83;4.40;;;17.60;1.00;;;;;;5078094;28;20468;-63
2023/10/04 10:26:23;;;;;;;12.93;5.40;;;17.50;99.90;;;;;;5062669;28;20461;-63
2023/10/04 10:29:04;;;;;;;9.83;4.80;;;17.50;99.90;;;;;;5078655;28;20453;-63
2023/10/04 10:31:32;;;;;;;10.57;5.10;;;17.30;99.90;;;;;;5078980;28;20945;-63
2023/10/04 10:34:00;;;;;;;13.30;5.40;;;17.50;99.90;;;;;;5078695;28;20750;-63
2023/10/04 10:36:27;;;;;;;8.33;4.90;;;17.80;1.00;;;;;;5078722;28;20461;-63
2023/10/04 10:38:55;;;;;;;9.10;5.47;;;17.70;99.90;;;;;;5078273;28;20457;-63
2023/10/04 10:41:57;;;;;;;10.30;5.03;;;17.70;1.00;;;;;;5077750;28;20760;-63
2023/10/04 10:44:30;;;;;;;7.23;5.07;;;17.90;99.90;;;;;;5014921;28;20597;-63
2023/10/04 10:46:59;;;;;;;9.50;5.30;;;17.80;1.00;;;;;;5000017;28;20463;-63
2023/10/04 10:49:49;;;;;;;10.57;5.50;;;17.70;1.00;;;;;;5043132;28;20461;-63
2023/10/04 10:52:42;;;;;;;9.40;4.67;;;18.10;1.00;;;;;;5078752;28;20463;-62
2023/10/04 10:55:16;;;;;;;9.50;4.97;;;18.00;1.00;;;;;;5057353;28;20572;-62
2023/10/04 10:57:45;;;;;;;9.47;6.40;;;18.10;1.00;;;;;;5076498;28;20493;-62
2023/10/04 11:00:19;;;;;;;11.60;5.27;;;18.30;1.00;;;;;;5077759;28;20885;-62
2023/10/04 11:02:48;;;;;;;12.70;5.47;;;18.30;1.00;;;;;;5077439;28;20844;-62
2023/10/04 11:05:16;;;;;;;5.90;4.50;;;18.50;1.00;;;;;;5076148;28;20515;-62
2023/10/04 11:07:45;;;;;;;9.27;5.80;;;18.40;99.90;;;;;;5076321;28;20461;-61
2023/10/04 11:10:16;;;;;;;10.60;5.00;;;18.30;99.90;;;;;;5076788;28;20457;-61
2023/10/04 11:12:44;;;;;;;10.67;5.30;;;17.80;99.90;;;;;;5076630;28;20449;-61
2023/10/04 11:15:12;;;;;;;8.50;4.17;;;18.10;99.90;;;;;;5076557;28;20544;-62
2023/10/04 11:17:41;;;;;;;11.87;5.10;;;18.20;99.90;;;;;;5066072;28;20466;-61
2023/10/04 11:20:12;;;;;;;9.60;5.33;;;18.40;99.90;;;;;;5071414;28;20514;-61
2023/10/04 11:22:41;;;;;;;9.63;4.20;;;18.30;99.90;;;;;;5078117;28;20458;-61
2023/10/04 11:25:11;;;;;;;7.87;4.50;;;18.10;99.90;;;;;;5076927;28;20804;-61
2023/10/04 11:27:40;;;;;;;8.33;4.83;;;18.20;99.90;;;;;;5077122;28;20461;-61
2023/10/04 11:30:10;;;;;;;8.00;4.70;;;18.50;99.90;;;;;;5078031;28;20462;-60
2023/10/04 11:32:41;;;;;;;8.37;4.80;;;18.30;99.90;;;;;;5077986;28;20458;-61
2023/10/04 11:35:09;;;;;;;11.60;5.20;;;18.60;99.90;;;;;;5077736;28;20511;-61
2023/10/04 11:37:43;;;;;;;6.90;4.03;;;18.80;99.90;;;;;;5077716;28;20761;-61
2023/10/04 11:40:12;;;;;;;8.87;4.60;;;18.70;99.90;;;;;;5072767;28;20500;-60
2023/10/04 11:42:41;;;;;;;9.07;4.20;;;18.30;99.90;;;;;;5076604;28;20485;-61
2023/10/04 11:45:18;;;;;;;14.23;5.00;;;18.10;99.90;;;;;;5077061;28;20514;-60
2023/10/04 11:48:00;;;;;;;7.93;4.47;;;18.00;99.90;;;;;;5077198;28;20805;-61
2023/10/04 11:50:41;;;;;;;8.80;5.00;;;18.00;99.90;;;;;;5077069;28;20935;-61
2023/10/04 11:53:09;;;;;;;10.83;4.77;;;18.20;99.90;;;;;;5074648;28;20453;-61
2023/10/04 11:55:37;;;;;;;8.67;4.33;;;18.50;99.90;;;;;;5077200;28;20473;-61
2023/10/04 11:58:06;;;;;;;8.27;4.17;;;18.60;99.90;;;;;;5076084;28;20472;-61
2023/10/04 12:00:34;;;;;;;5.87;4.40;;;18.70;99.90;;;;;;5076401;28;20492;-61
2023/10/04 12:03:03;;;;;;;6.20;4.00;;;18.80;99.90;;;;;;5076361;28;20937;-61
2023/10/04 12:05:30;;;;;;;9.20;4.63;;;19.00;99.90;;;;;;5076729;28;20510;-61
2023/10/04 12:07:58;;;;;;;7.50;4.33;;;19.30;99.90;;;;;;5076517;28;20486;-61
2023/10/04 12:10:26;;;;;;;8.10;4.77;;;19.60;99.90;;;;;;5076822;28;20736;-61
2023/10/04 12:12:55;;;;;;;8.03;4.90;;;19.50;98.90;;;;;;5077230;28;20856;-60
2023/10/04 12:15:23;;;;;;;10.50;5.80;;;19.30;53.60;;;;;;5076990;28;20465;-60
2023/10/04 12:17:51;;;;;;;9.50;5.30;;;18.90;6.90;;;;;;5076843;28;20461;-60
2023/10/04 12:20:21;;;;;;;8.30;5.30;;;18.90;83.90;;;;;;5076589;28;20457;-61
2023/10/04 12:22:49;;;;;;;8.87;5.47;;;18.90;63.90;;;;;;5075286;28;20484;-62
2023/10/04 12:25:18;;;;;;;9.90;5.87;;;19.30;48.20;;;;;;5074815;28;20475;-61
2023/10/04 12:27:47;;;;;;;12.47;6.90;;;19.40;41.40;;;;;;5075608;28;20436;-61
2023/10/04 12:30:18;;;;;;;8.73;5.83;;;19.50;11.80;;;;;;5075659;28;20746;-62
2023/10/04 12:32:46;;;;;;;10.23;5.67;;;19.50;1.00;;;;;;5075459;28;20461;-61
2023/10/04 12:35:14;;;;;;;10.80;6.53;;;19.30;7.80;;;;;;5075251;28;21016;-61
2023/10/04 12:37:43;;;;;;;11.40;5.23;;;19.40;1.00;;;;;;5078481;28;20484;-60
2023/10/04 12:40:17;;;;;;;13.67;6.23;;;18.90;1.50;;;;;;5081299;28;20475;-60
2023/10/04 12:42:46;;;;;;;10.20;5.50;;;18.70;1.00;;;;;;5081293;28;20465;-60
2023/10/04 12:45:15;;;;;;;7.63;5.33;;;18.60;17.00;;;;;;5080772;28;20485;-61
2023/10/04 12:47:42;;;;;;;12.33;5.73;;;18.70;1.00;;;;;;5081187;28;20468;-60
2023/10/04 12:50:14;;;;;;;10.30;5.70;;;18.60;1.00;;;;;;5079784;28;20479;-61
2023/10/04 12:52:43;;;;;;;9.73;5.47;;;18.60;38.60;;;;;;5079659;28;20468;-60
2023/10/04 12:55:11;;;;;;;9.47;6.00;;;18.80;1.00;;;;;;5079326;28;20484;-61
2023/10/04 12:57:39;;;;;;;11.83;6.50;;;18.30;1.00;;;;;;5079410;28;20464;-60
2023/10/04 13:00:13;;;;;;;16.27;6.30;;;18.30;1.00;;;;;;5079786;28;20563;-60